»·PEaware :: N1399 KRNO-KMMH

N1399 :: KRNO-KMMH

FLIGHT INFORMATION

Flight Status: Arrived
Operator: Privately registered:
United States
More flights under this callsign
Pilot: David C. (16084)
Aircraft: BEECH AIRCRAFT SUPER KING AIR 350
(B350)
More flights by this aircraft type
Origin: KRNO Reno/Tahoe Intl
United States
Destination: KMMH Mammoth Yosemite
United States
More flights between these airports :: More routes between these airports
Route: ZEFFR6 PESKE NIKOL
File this flight plan on PilotEdge
Remarks:
Altitude:
(Current/Filed)
19,000ft
Speed:
(Current/Filed)
338kts
Departed: 05-Mar-20 06:48 PM
Arrived: 05-Mar-20 07:35 PM
Distance/Time
Traveled:
120nm/0:47
Distance/Time
To Go:
Arrived

Flight Plot

Page will automatically refresh every two minutes.


Map Options




Map Legend


Flown Route
Filed Route
Departure Airport
Arrival Airport
Navaid (VOR, NDB)
Fix

Horizontal Profiles

Position Reports

Time Latitude Longitude Heading Altitude Ground
Speed
05-Mar-20 18:25 39.506372 -119.764667 269 4410ft 0kts
05-Mar-20 18:26 39.506372 -119.764667 269 4410ft 0kts
05-Mar-20 18:27 39.506372 -119.764667 269 4410ft 0kts
05-Mar-20 18:28 39.506372 -119.764667 269 4410ft 0kts
05-Mar-20 18:29 39.506372 -119.764667 269 4410ft 0kts
05-Mar-20 18:30 39.506372 -119.764667 269 4410ft 0kts
05-Mar-20 18:31 39.506372 -119.764667 269 4410ft 0kts
05-Mar-20 18:32 39.506372 -119.764667 269 4410ft 0kts
05-Mar-20 18:33 39.506372 -119.764667 269 4410ft 0kts
05-Mar-20 18:34 39.506372 -119.764667 269 4410ft 0kts
05-Mar-20 18:35 39.506372 -119.764667 269 4410ft 0kts
05-Mar-20 18:36 39.506372 -119.764667 269 4410ft 0kts
05-Mar-20 18:37 39.506372 -119.764667 269 4410ft 0kts
05-Mar-20 18:38 39.506372 -119.764667 269 4410ft 0kts
05-Mar-20 18:39 39.506372 -119.764667 269 4410ft 0kts
05-Mar-20 18:40 39.506375 -119.764712 280 4410ft 2kts
05-Mar-20 18:41 39.508640 -119.765674 359 4411ft 15kts
05-Mar-20 18:42 39.511667 -119.765142 0 4415ft 9kts
05-Mar-20 18:43 39.513711 -119.765619 281 4418ft 0kts
05-Mar-20 18:44 39.513711 -119.765619 281 4418ft 0kts
05-Mar-20 18:45 39.513711 -119.765619 281 4418ft 0kts
05-Mar-20 18:46 39.512267 -119.766759 180 4418ft 31kts
05-Mar-20 18:47 39.478000 -119.765859 176 5437ft 165kts
05-Mar-20 18:48 39.430213 -119.765814 187 7382ft 174kts
05-Mar-20 18:49 39.381940 -119.769307 183 9310ft 175kts
05-Mar-20 18:50 39.333037 -119.769704 182 11365ft 176kts
05-Mar-20 18:51 39.293378 -119.730831 139 13381ft 192kts
05-Mar-20 18:52 39.257730 -119.679715 139 15327ft 193kts
05-Mar-20 18:53 39.221958 -119.628181 140 17427ft 194kts
05-Mar-20 18:55 39.185727 -119.576134 141 19161ft 205kts
05-Mar-20 18:56 39.139681 -119.512160 142 19144ft 270kts
05-Mar-20 18:57 39.082105 -119.441849 142 19132ft 296kts
05-Mar-20 18:58 39.021617 -119.366947 141 19129ft 305kts
05-Mar-20 18:59 38.960328 -119.291203 141 19123ft 304kts
05-Mar-20 19:00 38.899717 -119.216291 140 19136ft 300kts
05-Mar-20 19:01 38.839433 -119.142076 140 19180ft 298kts
05-Mar-20 19:02 38.779007 -119.069379 147 19199ft 294kts
05-Mar-20 19:03 38.705145 -119.028628 162 19210ft 290kts
05-Mar-20 19:04 38.629410 -118.993518 162 19209ft 291kts
05-Mar-20 19:05 38.553362 -118.957661 162 19209ft 292kts
05-Mar-20 19:06 38.477023 -118.921669 162 19208ft 293kts
05-Mar-20 19:07 38.400186 -118.885529 162 19208ft 295kts
05-Mar-20 19:08 38.323331 -118.849465 162 19207ft 296kts
05-Mar-20 19:09 38.245821 -118.813176 162 19207ft 297kts
05-Mar-20 19:10 38.168046 -118.776843 162 19207ft 298kts
05-Mar-20 19:11 38.090406 -118.740377 162 19206ft 298kts
05-Mar-20 19:12 38.012551 -118.704023 162 19225ft 298kts
05-Mar-20 19:13 37.932475 -118.694713 178 19223ft 295kts
05-Mar-20 19:13 37.869118 -118.660134 152 19268ft 301kts
05-Mar-20 19:14 37.798901 -118.602610 130 19246ft 309kts
05-Mar-20 19:16 37.820154 -118.483989 52 18988ft 335kts
05-Mar-20 19:16 37.868507 -118.411717 40 17693ft 316kts
05-Mar-20 19:17 37.951004 -118.403024 352 16207ft 300kts
05-Mar-20 19:19 38.041665 -118.415497 352 15938ft 268kts
05-Mar-20 19:19 38.085233 -118.456754 279 15878ft 242kts
05-Mar-20 19:20 38.059990 -118.529343 229 14426ft 235kts
05-Mar-20 19:21 38.018842 -118.597651 230 13000ft 251kts
05-Mar-20 19:22 37.978735 -118.663651 226 12973ft 226kts
05-Mar-20 19:23 37.927037 -118.666297 156 12868ft 220kts
05-Mar-20 19:24 37.871339 -118.636785 158 11363ft 213kts
05-Mar-20 19:25 37.816800 -118.605586 158 11001ft 219kts
05-Mar-20 19:26 37.760954 -118.573417 158 10999ft 223kts
05-Mar-20 19:27 37.703730 -118.540619 156 11005ft 241kts
05-Mar-20 19:28 37.649524 -118.536927 206 10101ft 182kts
05-Mar-20 19:29 37.626046 -118.587986 262 9083ft 164kts
05-Mar-20 19:30 37.619459 -118.645183 262 9098ft 166kts
05-Mar-20 19:31 37.613938 -118.702875 273 9076ft 166kts
05-Mar-20 19:32 37.613472 -118.760635 265 8292ft 160kts
05-Mar-20 19:33 37.616735 -118.812852 290 7354ft 146kts
05-Mar-20 19:34 37.626733 -118.848586 290 7141ft 28kts
05-Mar-20 19:35 37.627744 -118.849037 108 7141ft 11kts
05-Mar-20 19:36 37.627565 -118.845580 51 7131ft 8kts
05-Mar-20 19:37 37.627225 -118.844919 196 7129ft 0kts
05-Mar-20 19:38 37.627225 -118.844919 196 7129ft 0kts

Navigation Log

Ident Type
Flight plan parsing failed, navigation log unavailable